createdAt,value
2018-04-12T00:00:10.213Z,33.70
2018-04-12T00:02:38.568Z,32.73
2018-04-12T00:05:08.024Z,39.57
2018-04-12T00:07:36.828Z,37.23
2018-04-12T00:10:05.093Z,37.33
2018-04-12T00:12:33.263Z,37.60
2018-04-12T00:15:02.172Z,35.30
2018-04-12T00:17:31.138Z,41.67
2018-04-12T00:20:02.008Z,47.03
2018-04-12T00:22:31.075Z,46.73
2018-04-12T00:25:00.295Z,48.17
2018-04-12T00:27:28.825Z,53.17
2018-04-12T00:29:57.855Z,51.87
2018-04-12T00:32:26.768Z,53.30
2018-04-12T00:34:54.930Z,51.03
2018-04-12T00:37:23.744Z,50.70
2018-04-12T00:39:52.049Z,56.17
2018-04-12T00:42:20.386Z,51.40
2018-04-12T00:44:48.903Z,53.37
2018-04-12T00:47:17.715Z,51.20
2018-04-12T00:49:46.233Z,55.53
2018-04-12T00:52:15.325Z,53.13
2018-04-12T00:54:43.787Z,54.20
2018-04-12T00:57:12.878Z,52.20
2018-04-12T00:59:41.105Z,54.60
2018-04-12T01:02:10.784Z,52.80
2018-04-12T01:04:39.112Z,52.40
2018-04-12T01:07:07.793Z,54.37
2018-04-12T01:09:35.945Z,54.13
2018-04-12T01:12:04.842Z,52.63
2018-04-12T01:14:33.782Z,51.73
2018-04-12T01:17:02.782Z,50.90
2018-04-12T01:19:31.131Z,50.13
2018-04-12T01:22:01.010Z,51.80
2018-04-12T01:24:29.663Z,52.43
2018-04-12T01:26:58.046Z,54.30
2018-04-12T01:29:26.141Z,47.80
2018-04-12T01:31:55.594Z,53.30
2018-04-12T01:34:24.650Z,54.77
2018-04-12T01:36:53.692Z,54.23
2018-04-12T01:39:23.251Z,56.30
2018-04-12T01:41:51.570Z,58.27
2018-04-12T01:44:20.736Z,55.00
2018-04-12T01:46:49.156Z,55.23
2018-04-12T01:49:18.052Z,57.47
2018-04-12T01:51:46.442Z,54.27
2018-04-12T01:54:15.073Z,55.10
2018-04-12T01:56:43.228Z,55.20
2018-04-12T01:59:11.419Z,57.33
2018-04-12T02:01:39.731Z,56.43
2018-04-12T02:04:08.276Z,59.53
2018-04-12T02:06:36.553Z,57.80
2018-04-12T02:09:06.456Z,59.47
2018-04-12T02:11:34.744Z,58.57
2018-04-12T02:14:02.907Z,57.53
2018-04-12T02:16:32.344Z,60.63
2018-04-12T02:19:01.416Z,60.17
2018-04-12T02:21:30.197Z,61.63
2018-04-12T02:23:58.389Z,58.13
2018-04-12T02:26:26.619Z,63.00
2018-04-12T02:28:55.078Z,57.47
2018-04-12T02:31:23.223Z,62.33
2018-04-12T02:33:52.241Z,61.07
2018-04-12T02:36:20.595Z,61.57
2018-04-12T02:38:49.460Z,62.27
2018-04-12T02:41:17.729Z,62.30
2018-04-12T02:43:45.921Z,69.60
2018-04-12T02:46:14.976Z,70.70
2018-04-12T02:48:43.184Z,70.23
2018-04-12T02:51:11.477Z,72.67
2018-04-12T02:53:39.904Z,70.63
2018-04-12T02:56:08.275Z,69.47
2018-04-12T02:58:36.640Z,73.87
2018-04-12T03:01:05.058Z,80.07
2018-04-12T03:03:33.832Z,70.00
2018-04-12T03:06:02.336Z,69.87
2018-04-12T03:08:30.551Z,75.33
2018-04-12T03:10:59.058Z,75.27
2018-04-12T03:13:27.412Z,74.03
2018-04-12T03:15:55.686Z,70.00
2018-04-12T03:18:23.932Z,74.77
2018-04-12T03:20:53.392Z,79.60
2018-04-12T03:23:21.837Z,71.80
2018-04-12T03:25:51.609Z,76.43
2018-04-12T03:28:20.008Z,75.77
2018-04-12T03:30:48.870Z,72.60
2018-04-12T03:33:17.103Z,72.93
2018-04-12T03:35:45.403Z,73.63
2018-04-12T03:38:14.086Z,74.47
2018-04-12T03:40:42.318Z,69.90
2018-04-12T03:43:11.335Z,71.03
2018-04-12T03:45:39.838Z,73.27
2018-04-12T03:48:08.209Z,72.93
2018-04-12T03:50:37.539Z,77.40
2018-04-12T03:53:07.055Z,71.90
2018-04-12T03:55:35.402Z,73.73
2018-04-12T03:58:04.350Z,77.30
2018-04-12T04:00:33.410Z,74.50
2018-04-12T04:03:01.902Z,81.43
2018-04-12T04:05:30.360Z,70.47
2018-04-12T04:07:58.797Z,69.67
2018-04-12T04:10:27.968Z,69.60
2018-04-12T04:12:56.818Z,73.30
2018-04-12T04:17:42.510Z,72.63
2018-04-12T04:20:21.997Z,77.00
2018-04-12T04:22:50.564Z,72.83
2018-04-12T04:25:19.129Z,73.60
2018-04-12T04:27:48.552Z,71.17
2018-04-12T04:30:17.043Z,68.43
2018-04-12T04:32:45.689Z,67.33
2018-04-12T04:35:14.920Z,74.17
2018-04-12T04:37:45.825Z,72.77
2018-04-12T04:40:14.065Z,75.90
2018-04-12T04:42:42.259Z,76.97
2018-04-12T04:45:11.117Z,71.97
2018-04-12T04:47:39.323Z,69.80
2018-04-12T04:50:07.744Z,71.30
2018-04-12T04:52:36.349Z,67.63
2018-04-12T04:55:05.452Z,67.50
2018-04-12T04:57:33.873Z,68.20
2018-04-12T05:00:02.525Z,69.80
2018-04-12T05:02:30.996Z,69.33
2018-04-12T05:05:00.232Z,67.53
2018-04-12T05:07:28.513Z,68.53
2018-04-12T05:09:57.898Z,69.50
2018-04-12T05:12:26.744Z,65.57
2018-04-12T05:14:55.079Z,67.40
2018-04-12T05:17:23.366Z,66.77
2018-04-12T05:19:51.893Z,73.67
2018-04-12T05:22:20.100Z,65.93
2018-04-12T05:24:48.544Z,64.83
2018-04-12T05:27:16.909Z,64.57
2018-04-12T05:29:47.285Z,62.20
2018-04-12T05:32:16.406Z,68.93
2018-04-12T05:34:44.668Z,68.50
2018-04-12T05:37:13.177Z,66.00
2018-04-12T05:39:41.419Z,65.03
2018-04-12T05:42:09.959Z,63.13
2018-04-12T05:44:38.780Z,61.27
2018-04-12T05:47:08.142Z,56.37
2018-04-12T05:49:37.608Z,56.23
2018-04-12T05:52:06.819Z,62.27
2018-04-12T05:54:36.077Z,57.80
2018-04-12T05:57:04.360Z,57.13
2018-04-12T05:59:33.459Z,59.97
2018-04-12T06:02:02.624Z,55.97
2018-04-12T06:04:31.037Z,54.80
2018-04-12T06:06:59.296Z,55.30
2018-04-12T06:09:27.592Z,55.23
2018-04-12T06:11:56.638Z,55.60
2018-04-12T06:14:25.096Z,56.67
2018-04-12T06:16:53.848Z,50.83
2018-04-12T06:19:22.672Z,51.57
2018-04-12T06:21:51.176Z,58.10
2018-04-12T06:24:20.168Z,52.97
2018-04-12T06:26:49.348Z,55.47
2018-04-12T06:29:18.188Z,55.97
2018-04-12T06:31:49.206Z,50.20
2018-04-12T06:34:18.323Z,49.33
2018-04-12T06:36:46.738Z,51.13
2018-04-12T06:39:15.724Z,52.80
2018-04-12T06:41:44.221Z,50.13
2018-04-12T06:44:12.690Z,49.83
2018-04-12T06:46:42.480Z,53.30
2018-04-12T06:49:10.835Z,53.10
2018-04-12T06:51:39.087Z,50.97
2018-04-12T06:54:09.034Z,54.90
2018-04-12T06:56:37.352Z,53.97
2018-04-12T06:59:06.996Z,57.10
2018-04-12T07:01:35.237Z,49.77
2018-04-12T07:04:04.278Z,51.90
2018-04-12T07:06:33.092Z,60.50
2018-04-12T07:09:02.479Z,54.90
2018-04-12T07:11:30.667Z,50.30
2018-04-12T07:13:59.641Z,49.83
2018-04-12T07:16:28.824Z,45.57
2018-04-12T07:18:57.035Z,43.07
2018-04-12T07:21:25.685Z,42.27
2018-04-12T07:23:54.297Z,46.90
2018-04-12T07:26:22.472Z,40.93
2018-04-12T07:28:51.628Z,42.70
2018-04-12T07:31:19.852Z,33.83
2018-04-12T07:33:48.975Z,44.33
2018-04-12T07:36:17.497Z,39.13
2018-04-12T07:38:46.713Z,37.07
2018-04-12T07:41:15.994Z,35.20
2018-04-12T07:43:44.856Z,35.33
2018-04-12T07:46:14.038Z,37.93
2018-04-12T07:48:42.318Z,36.67
2018-04-12T07:51:11.021Z,32.63
2018-04-12T07:53:39.530Z,33.13
2018-04-12T07:56:07.862Z,30.33
2018-04-12T07:58:37.190Z,33.67
2018-04-12T08:01:05.668Z,33.10
2018-04-12T08:03:34.876Z,31.73
2018-04-12T08:06:03.155Z,33.07
2018-04-12T08:08:31.626Z,29.43
2018-04-12T08:10:59.780Z,32.67
2018-04-12T08:13:28.327Z,29.07
2018-04-12T08:15:56.801Z,28.97
2018-04-12T08:18:25.978Z,31.13
2018-04-12T08:20:54.081Z,32.00
2018-04-12T08:23:23.738Z,31.37
2018-04-12T08:25:52.024Z,29.57
2018-04-12T08:28:20.360Z,31.23
2018-04-12T08:30:49.492Z,27.23
2018-04-12T08:33:17.796Z,37.37
2018-04-12T08:35:46.088Z,26.53
2018-04-12T08:38:14.528Z,28.33
2018-04-12T08:40:42.838Z,30.77
2018-04-12T08:43:11.090Z,24.23
2018-04-12T08:45:39.404Z,24.93
2018-04-12T08:48:07.652Z,21.70
2018-04-12T08:50:37.149Z,27.47
2018-04-12T08:53:07.293Z,22.27
2018-04-12T08:55:36.772Z,21.30
2018-04-12T08:58:05.034Z,18.00
2018-04-12T09:00:33.415Z,19.80
2018-04-12T09:03:02.407Z,15.57
2018-04-12T09:05:32.000Z,12.97
2018-04-12T09:08:00.105Z,15.60
2018-04-12T09:10:29.125Z,11.37
2018-04-12T09:12:57.683Z,14.83
2018-04-12T09:15:26.075Z,10.30
2018-04-12T09:17:54.533Z,12.70
2018-04-12T09:20:22.797Z,12.10
2018-04-12T09:22:51.885Z,11.63
2018-04-12T09:25:20.126Z,11.13
2018-04-12T09:27:49.458Z,10.60
2018-04-12T09:30:17.992Z,7.37
2018-04-12T09:32:46.319Z,7.10
2018-04-12T09:35:14.435Z,8.07
2018-04-12T09:37:43.451Z,6.37
2018-04-12T09:40:11.602Z,5.33
2018-04-12T09:42:40.263Z,6.83
2018-04-12T09:45:09.440Z,6.40
2018-04-12T09:47:38.043Z,8.93
2018-04-12T09:50:06.474Z,6.40
2018-04-12T09:52:34.776Z,6.47
2018-04-12T09:55:03.123Z,7.20
2018-04-12T09:57:32.305Z,8.07
2018-04-12T10:00:01.295Z,8.03
2018-04-12T10:02:30.065Z,8.03
2018-04-12T10:04:59.665Z,10.00
2018-04-12T10:07:32.451Z,8.07
2018-04-12T10:10:00.940Z,7.57
2018-04-12T10:12:30.549Z,6.00
2018-04-12T10:14:58.866Z,4.57
2018-04-12T10:17:27.353Z,4.43
2018-04-12T10:19:55.654Z,6.77
2018-04-12T10:22:23.723Z,9.97
2018-04-12T10:24:51.789Z,7.73
2018-04-12T10:27:19.964Z,7.17
2018-04-12T10:29:48.145Z,10.73
2018-04-12T10:32:16.300Z,9.83
2018-04-12T10:34:44.512Z,11.07
2018-04-12T10:37:13.308Z,4.33
2018-04-12T10:39:42.268Z,8.40
2018-04-12T10:42:10.508Z,7.77
2018-04-12T10:44:38.691Z,6.80
2018-04-12T10:47:07.349Z,6.80
2018-04-12T10:49:35.600Z,6.90
2018-04-12T10:52:04.592Z,7.43
2018-04-12T10:54:33.452Z,7.67
2018-04-12T10:57:02.123Z,6.03
2018-04-12T10:59:30.759Z,9.67
2018-04-12T11:01:59.919Z,9.33
2018-04-12T11:04:28.654Z,6.63
2018-04-12T11:06:56.912Z,9.33
2018-04-12T11:09:25.349Z,5.77
2018-04-12T11:11:53.542Z,6.70
2018-04-12T11:14:22.237Z,9.77
2018-04-12T11:16:50.712Z,8.67
2018-04-12T11:19:19.481Z,8.90
2018-04-12T11:21:47.849Z,6.83
2018-04-12T11:24:16.193Z,6.33
2018-04-12T11:26:44.651Z,5.93
2018-04-12T11:29:13.196Z,7.53
2018-04-12T11:31:41.885Z,6.57
2018-04-12T11:34:11.111Z,7.43
2018-04-12T11:36:40.382Z,6.50
2018-04-12T11:39:09.602Z,7.10
2018-04-12T11:41:39.051Z,7.43
2018-04-12T11:44:07.434Z,4.83
2018-04-12T11:46:35.523Z,4.00
2018-04-12T11:49:05.280Z,4.60
2018-04-12T11:51:33.706Z,3.30
2018-04-12T11:54:03.373Z,4.97
2018-04-12T11:56:32.535Z,5.80
2018-04-12T11:59:01.276Z,8.13
2018-04-12T12:01:29.793Z,6.50
2018-04-12T12:03:58.826Z,6.30
2018-04-12T12:06:28.768Z,4.93
2018-04-12T12:08:57.377Z,5.13
2018-04-12T12:11:28.723Z,5.80
2018-04-12T12:13:57.281Z,2.90
2018-04-12T12:16:26.423Z,7.47
2018-04-12T12:18:54.884Z,5.63
2018-04-12T12:21:24.554Z,4.63
2018-04-12T12:23:52.788Z,7.17
2018-04-12T12:26:21.194Z,4.77
2018-04-12T12:28:51.104Z,5.40
2018-04-12T12:31:20.916Z,6.50
2018-04-12T12:33:49.813Z,3.70
2018-04-12T12:36:19.520Z,7.73
2018-04-12T12:38:49.301Z,4.47
2018-04-12T12:41:17.802Z,3.87
2018-04-12T12:43:47.275Z,6.90
2018-04-12T12:46:15.663Z,3.13
2018-04-12T12:48:44.450Z,5.20
2018-04-12T12:51:13.100Z,8.63
2018-04-12T12:53:41.381Z,3.43
2018-04-12T12:56:09.900Z,3.40
2018-04-12T12:58:38.135Z,14.93
2018-04-12T13:01:07.375Z,10.97
2018-04-12T13:03:36.407Z,3.67
2018-04-12T13:06:05.651Z,2.93
2018-04-12T13:08:34.345Z,3.47
2018-04-12T13:11:02.616Z,3.20
2018-04-12T13:13:31.000Z,6.33
2018-04-12T13:15:59.543Z,4.27
2018-04-12T13:18:28.152Z,5.10
2018-04-12T13:20:56.523Z,3.87
2018-04-12T13:23:25.214Z,5.40
2018-04-12T13:25:53.612Z,6.03
2018-04-12T13:28:22.453Z,4.90
2018-04-12T13:30:51.452Z,4.90
2018-04-12T13:33:19.963Z,7.03
2018-04-12T13:35:48.669Z,7.73
2018-04-12T13:38:17.116Z,3.13
2018-04-12T13:40:45.271Z,3.23
2018-04-12T13:43:13.635Z,3.53
2018-04-12T13:45:42.131Z,5.97
2018-04-12T13:48:10.525Z,3.27
2018-04-12T13:50:38.957Z,6.23
2018-04-12T13:53:07.824Z,4.67
2018-04-12T13:55:37.423Z,3.90
2018-04-12T13:58:06.200Z,5.87
2018-04-12T14:00:34.988Z,5.27
2018-04-12T14:03:03.104Z,2.90
2018-04-12T14:05:32.672Z,4.47
2018-04-12T14:08:01.522Z,4.57
2018-04-12T14:10:29.911Z,4.03
2018-04-12T14:12:58.152Z,5.17
2018-04-12T14:15:26.565Z,4.83
2018-04-12T14:17:55.681Z,9.43
2018-04-12T14:20:24.073Z,3.83
2018-04-12T14:22:53.180Z,2.93
2018-04-12T14:25:22.173Z,3.40
2018-04-12T14:27:50.403Z,3.40
2018-04-12T14:30:20.009Z,7.13
2018-04-12T14:32:50.602Z,4.53
2018-04-12T14:35:49.633Z,6.13
2018-04-12T14:38:17.867Z,3.27
2018-04-12T14:40:47.442Z,4.80
2018-04-12T14:43:16.709Z,5.07
2018-04-12T14:45:46.574Z,5.70
2018-04-12T14:48:16.952Z,2.40
2018-04-12T14:50:45.430Z,5.30
2018-04-12T14:53:13.673Z,7.40
2018-04-12T14:55:42.719Z,3.73
2018-04-12T14:58:11.072Z,4.20
2018-04-12T15:00:40.536Z,4.23
2018-04-12T15:03:08.649Z,4.77
2018-04-12T15:05:37.464Z,6.60
2018-04-12T15:08:07.280Z,7.47
2018-04-12T15:10:36.446Z,5.93
2018-04-12T15:13:05.163Z,7.07
2018-04-12T15:15:33.423Z,5.07
2018-04-12T15:18:01.555Z,4.50
2018-04-12T15:20:29.741Z,5.83
2018-04-12T15:22:58.446Z,4.27
2018-04-12T15:25:26.633Z,8.43
2018-04-12T15:27:56.044Z,7.33
2018-04-12T15:30:24.425Z,6.87
2018-04-12T15:32:52.873Z,6.50
2018-04-12T15:35:21.966Z,3.93
2018-04-12T15:37:50.580Z,8.67
2018-04-12T15:40:20.207Z,5.53
2018-04-12T15:42:49.971Z,6.93
2018-04-12T15:45:19.018Z,4.47
2018-04-12T15:47:47.712Z,9.07
2018-04-12T15:50:16.357Z,8.50
2018-04-12T15:52:44.641Z,5.97
2018-04-12T15:55:13.533Z,5.57
2018-04-12T15:57:42.212Z,5.70
2018-04-12T16:00:11.624Z,4.13
2018-04-12T16:02:40.757Z,2.73
2018-04-12T16:05:09.330Z,7.23
2018-04-12T16:07:37.532Z,3.10
2018-04-12T16:10:06.364Z,5.43
2018-04-12T16:12:35.696Z,3.50
2018-04-12T16:15:04.114Z,4.00
2018-04-12T16:17:32.149Z,3.57
2018-04-12T16:20:00.904Z,5.27
2018-04-12T16:22:29.653Z,5.03
2018-04-12T16:24:57.941Z,8.37
2018-04-12T16:27:26.067Z,4.33
2018-04-12T16:29:54.336Z,7.53
2018-04-12T16:32:22.740Z,6.33
2018-04-12T16:34:51.181Z,5.97
2018-04-12T16:37:21.255Z,4.60
2018-04-12T16:39:51.364Z,4.93
2018-04-12T16:42:19.536Z,4.63
2018-04-12T16:44:49.126Z,19.43
2018-04-12T16:47:17.380Z,7.97
2018-04-12T16:49:54.208Z,5.53
2018-04-12T16:52:22.773Z,7.03
2018-04-12T16:54:51.299Z,6.10
2018-04-12T16:57:20.661Z,5.13
2018-04-12T16:59:49.438Z,5.63
2018-04-12T17:02:18.889Z,6.40
2018-04-12T17:04:48.083Z,7.30
2018-04-12T17:07:17.188Z,6.33
2018-04-12T17:09:46.333Z,4.07
2018-04-12T17:12:15.000Z,8.03
2018-04-12T17:14:43.579Z,5.20
2018-04-12T17:17:12.189Z,5.27
2018-04-12T17:19:40.851Z,4.03
2018-04-12T17:22:09.689Z,7.03
2018-04-12T17:24:37.898Z,5.37
2018-04-12T17:27:06.232Z,7.70
2018-04-12T17:29:35.554Z,9.90
2018-04-12T17:32:03.967Z,9.63
2018-04-12T17:34:32.168Z,7.77
2018-04-12T17:37:00.261Z,5.37
2018-04-12T17:39:28.862Z,8.23
2018-04-12T17:41:57.327Z,7.40
2018-04-12T17:44:25.542Z,6.17
2018-04-12T17:46:54.467Z,7.57
2018-04-12T17:49:25.283Z,11.17
2018-04-12T17:51:53.905Z,7.77
2018-04-12T17:54:21.974Z,5.30
2018-04-12T17:56:50.689Z,2.80
2018-04-12T17:59:18.890Z,8.30
2018-04-12T18:01:46.997Z,9.30
2018-04-12T18:04:17.125Z,11.03
2018-04-12T18:06:45.329Z,5.33
2018-04-12T18:09:14.485Z,8.23
2018-04-12T18:11:42.918Z,10.10
2018-04-12T18:14:12.000Z,21.77
2018-04-12T18:16:40.888Z,10.57
2018-04-12T18:19:10.148Z,8.50
2018-04-12T18:21:39.188Z,9.67
2018-04-12T18:24:08.005Z,6.43
2018-04-12T18:26:37.280Z,7.80
2018-04-12T18:29:06.499Z,9.17
2018-04-12T18:31:35.987Z,6.63
2018-04-12T18:34:04.397Z,10.90
2018-04-12T18:36:32.698Z,5.73
2018-04-12T18:39:01.718Z,8.47
2018-04-12T18:41:31.328Z,6.20
2018-04-12T18:44:00.601Z,13.47
2018-04-12T18:46:29.004Z,5.97
2018-04-12T18:48:58.071Z,7.87
2018-04-12T18:51:26.452Z,10.43
2018-04-12T18:53:55.242Z,11.03
2018-04-12T18:56:23.510Z,11.17
2018-04-12T18:58:52.811Z,11.90
2018-04-12T19:01:21.002Z,7.40
2018-04-12T19:03:49.447Z,7.80
2018-04-12T19:06:17.936Z,3.80
2018-04-12T19:08:46.572Z,6.20
2018-04-12T19:11:16.144Z,4.93
2018-04-12T19:13:44.348Z,1.97
2018-04-12T19:16:13.392Z,3.57
2018-04-12T19:18:43.263Z,3.97
2018-04-12T19:21:11.677Z,3.27
2018-04-12T19:23:40.259Z,3.13
2018-04-12T19:26:09.399Z,2.40
2018-04-12T19:28:38.367Z,9.60
2018-04-12T19:31:06.642Z,2.07
2018-04-12T19:33:35.990Z,3.43
2018-04-12T19:36:04.784Z,12.77
2018-04-12T19:38:33.351Z,6.53
2018-04-12T19:41:01.513Z,6.10
2018-04-12T19:43:30.586Z,2.87
2018-04-12T19:45:59.684Z,5.13
2018-04-12T19:48:27.907Z,2.50
2018-04-12T19:50:56.309Z,3.90
2018-04-12T19:53:25.262Z,4.47
2018-04-12T19:55:53.485Z,2.63
2018-04-12T19:58:21.973Z,4.77
2018-04-12T20:00:50.124Z,4.57
2018-04-12T20:03:19.297Z,5.67
2018-04-12T20:05:47.360Z,4.63
2018-04-12T20:08:16.435Z,6.57
2018-04-12T20:10:45.449Z,8.30
2018-04-12T20:13:13.788Z,4.97
2018-04-12T20:15:42.268Z,4.13
2018-04-12T20:18:11.296Z,3.40
2018-04-12T20:20:39.680Z,6.93
2018-04-12T20:23:08.207Z,6.93
2018-04-12T20:25:36.620Z,6.03
2018-04-12T20:28:04.941Z,6.97
2018-04-12T20:30:34.220Z,5.77
2018-04-12T20:33:03.337Z,5.23
2018-04-12T20:35:32.075Z,4.90
2018-04-12T20:38:00.497Z,4.17
2018-04-12T20:40:29.321Z,4.83
2018-04-12T20:42:57.892Z,3.67
2018-04-12T20:45:26.213Z,6.77
2018-04-12T20:47:55.168Z,7.33
2018-04-12T20:50:23.336Z,7.03
2018-04-12T20:52:51.544Z,5.20
2018-04-12T20:55:20.504Z,5.70
2018-04-12T20:57:48.963Z,4.63
2018-04-12T21:00:17.244Z,7.67
2018-04-12T21:02:48.040Z,4.53
2018-04-12T21:05:16.815Z,3.23
2018-04-12T21:07:45.937Z,5.67
2018-04-12T21:10:14.428Z,6.03
2018-04-12T21:12:43.736Z,3.57
2018-04-12T21:15:12.143Z,6.93
2018-04-12T21:17:40.524Z,6.07
2018-04-12T21:20:08.844Z,8.03
2018-04-12T21:22:37.347Z,10.43
2018-04-12T21:25:06.136Z,6.37
2018-04-12T21:27:35.742Z,2.53
2018-04-12T21:30:04.552Z,5.23
2018-04-12T21:32:33.073Z,5.80
2018-04-12T21:35:02.359Z,3.50
2018-04-12T21:37:33.435Z,2.37
2018-04-12T21:40:07.271Z,3.73
2018-04-12T21:42:35.873Z,3.23
2018-04-12T21:45:04.582Z,3.07
2018-04-12T21:47:33.424Z,4.00
2018-04-12T21:50:01.905Z,3.23
2018-04-12T21:52:30.084Z,4.30
2018-04-12T21:54:58.549Z,3.87
2018-04-12T21:57:27.005Z,3.17
2018-04-12T21:59:55.206Z,2.70
2018-04-12T22:02:23.560Z,4.63
2018-04-12T22:04:52.076Z,3.40
2018-04-12T22:07:20.465Z,6.07
2018-04-12T22:09:48.747Z,7.10
2018-04-12T22:12:17.356Z,4.63
2018-04-12T22:14:46.776Z,4.17
2018-04-12T22:17:14.981Z,5.87
2018-04-12T22:19:43.757Z,3.50
2018-04-12T22:22:13.453Z,4.90
2018-04-12T22:24:41.594Z,4.67
2018-04-12T22:27:10.556Z,4.70
2018-04-12T22:29:39.135Z,5.60
2018-04-12T22:32:07.402Z,4.27
2018-04-12T22:34:35.636Z,7.23
2018-04-12T22:37:04.688Z,7.27
2018-04-12T22:39:33.127Z,5.10
2018-04-12T22:42:01.323Z,4.23
2018-04-12T22:44:29.594Z,5.20
2018-04-12T22:46:58.210Z,3.10
2018-04-12T22:49:26.937Z,5.17
2018-04-12T22:51:55.368Z,6.13
2018-04-12T22:54:23.787Z,7.30
2018-04-12T22:56:52.338Z,6.03
2018-04-12T22:59:21.394Z,4.20
2018-04-12T23:01:49.671Z,4.73
2018-04-12T23:04:18.250Z,4.37
2018-04-12T23:06:46.876Z,6.40
2018-04-12T23:09:15.110Z,5.33
2018-04-12T23:11:43.615Z,6.10
2018-04-12T23:14:12.201Z,3.20
2018-04-12T23:16:40.396Z,6.50
2018-04-12T23:19:10.239Z,6.33
2018-04-12T23:21:38.675Z,5.93
2018-04-12T23:24:06.796Z,3.33
2018-04-12T23:26:35.105Z,5.83
2018-04-12T23:29:03.946Z,5.23
2018-04-12T23:31:33.182Z,4.23
2018-04-12T23:34:01.994Z,4.53
2018-04-12T23:36:30.194Z,4.80
2018-04-12T23:38:58.736Z,3.20
2018-04-12T23:41:26.837Z,8.03
2018-04-12T23:43:55.022Z,3.20
2018-04-12T23:46:23.156Z,5.57
2018-04-12T23:48:51.466Z,5.30
2018-04-12T23:51:21.296Z,3.43
2018-04-12T23:53:50.063Z,7.90
2018-04-12T23:56:18.816Z,4.70
2018-04-12T23:58:47.353Z,4.90
